createdAt,value
2018-02-15T00:00:30.979Z,15.27
2018-02-15T00:02:57.592Z,15.25
2018-02-15T00:05:24.243Z,15.21
2018-02-15T00:07:50.843Z,15.21
2018-02-15T00:10:17.360Z,15.23
2018-02-15T00:12:44.029Z,15.26
2018-02-15T00:15:10.600Z,15.20
2018-02-15T00:17:37.162Z,15.15
2018-02-15T00:20:03.726Z,15.17
2018-02-15T00:22:30.362Z,15.23
2018-02-15T00:24:56.944Z,15.26
2018-02-15T00:27:23.526Z,15.23
2018-02-15T00:29:50.094Z,15.27
2018-02-15T00:32:16.678Z,15.15
2018-02-15T00:34:43.288Z,15.27
2018-02-15T00:37:09.902Z,15.34
2018-02-15T00:39:36.473Z,15.31
2018-02-15T00:42:03.047Z,15.31
2018-02-15T00:44:29.712Z,15.25
2018-02-15T00:46:56.285Z,15.24
2018-02-15T00:49:22.879Z,15.19
2018-02-15T00:51:49.491Z,15.29
2018-02-15T00:54:16.123Z,15.18
2018-02-15T00:56:42.715Z,15.21
2018-02-15T00:59:09.303Z,15.15
2018-02-15T01:01:35.859Z,15.19
2018-02-15T01:04:02.553Z,15.20
2018-02-15T01:06:29.152Z,15.24
2018-02-15T01:08:55.760Z,15.20
2018-02-15T01:11:22.338Z,15.24
2018-02-15T01:13:48.935Z,15.25
2018-02-15T01:16:15.524Z,15.12
2018-02-15T01:18:42.103Z,15.12
2018-02-15T01:21:08.778Z,15.12
2018-02-15T01:23:35.360Z,15.21
2018-02-15T01:26:02.002Z,15.18
2018-02-15T01:28:28.610Z,15.13
2018-02-15T01:30:55.219Z,15.11
2018-02-15T01:33:21.858Z,15.09
2018-02-15T01:35:48.450Z,15.15
2018-02-15T01:38:15.147Z,15.15
2018-02-15T01:40:41.729Z,15.10
2018-02-15T01:43:08.325Z,15.10
2018-02-15T01:45:35.018Z,15.12
2018-02-15T01:48:01.584Z,15.07
2018-02-15T01:50:28.165Z,15.06
2018-02-15T01:52:54.786Z,15.05
2018-02-15T01:55:21.354Z,15.01
2018-02-15T01:57:47.977Z,15.00
2018-02-15T02:00:14.571Z,14.99
2018-02-15T02:02:41.125Z,15.04
2018-02-15T02:05:07.713Z,15.03
2018-02-15T02:07:34.270Z,14.97
2018-02-15T02:10:00.832Z,15.04
2018-02-15T02:12:27.417Z,14.96
2018-02-15T02:14:53.995Z,15.00
2018-02-15T02:17:20.590Z,15.07
2018-02-15T02:19:47.172Z,15.08
2018-02-15T02:22:13.845Z,14.98
2018-02-15T02:24:40.413Z,15.00
2018-02-15T02:27:06.980Z,14.98
2018-02-15T02:29:33.586Z,14.99
2018-02-15T02:32:00.186Z,14.99
2018-02-15T02:34:26.793Z,14.98
2018-02-15T02:36:53.388Z,14.92
2018-02-15T02:39:20.021Z,14.91
2018-02-15T02:41:46.713Z,14.92
2018-02-15T02:44:13.286Z,14.93
2018-02-15T02:46:39.912Z,14.94
2018-02-15T02:49:06.550Z,14.90
2018-02-15T02:51:33.138Z,14.95
2018-02-15T02:53:59.757Z,14.91
2018-02-15T02:56:26.341Z,14.85
2018-02-15T02:58:52.914Z,14.84
2018-02-15T03:01:19.531Z,14.88
2018-02-15T03:03:46.138Z,14.94
2018-02-15T03:06:12.726Z,14.93
2018-02-15T03:08:39.342Z,14.92
2018-02-15T03:11:05.972Z,14.85
2018-02-15T03:13:32.587Z,14.86
2018-02-15T03:15:59.202Z,14.88
2018-02-15T03:18:25.792Z,14.79
2018-02-15T03:20:52.452Z,14.77
2018-02-15T03:23:19.074Z,14.80
2018-02-15T03:25:45.709Z,14.76
2018-02-15T03:28:12.284Z,14.78
2018-02-15T03:30:38.902Z,14.80
2018-02-15T03:33:05.503Z,14.78
2018-02-15T03:35:32.120Z,14.69
2018-02-15T03:37:58.685Z,14.74
2018-02-15T03:40:25.338Z,14.72
2018-02-15T03:42:51.936Z,14.71
2018-02-15T03:45:18.550Z,14.63
2018-02-15T03:47:45.218Z,14.76
2018-02-15T03:50:11.858Z,14.79
2018-02-15T03:52:38.503Z,14.73
2018-02-15T03:55:05.068Z,14.75
2018-02-15T03:57:31.669Z,14.75
2018-02-15T03:59:58.248Z,14.64
2018-02-15T04:02:24.875Z,14.63
2018-02-15T04:04:51.479Z,14.57
2018-02-15T04:07:18.094Z,14.54
2018-02-15T04:09:44.681Z,14.62
2018-02-15T04:12:11.317Z,14.61
2018-02-15T04:14:37.903Z,14.46
2018-02-15T04:17:04.532Z,14.54
2018-02-15T04:19:31.145Z,14.74
2018-02-15T04:21:57.773Z,15.16
2018-02-15T04:24:24.347Z,15.56
2018-02-15T04:26:51.010Z,15.57
2018-02-15T04:29:17.574Z,15.67
2018-02-15T04:31:44.133Z,15.56
2018-02-15T04:34:10.783Z,15.43
2018-02-15T04:36:37.377Z,14.81
2018-02-15T04:39:04.001Z,14.57
2018-02-15T04:41:30.570Z,14.39
2018-02-15T04:43:57.169Z,14.35
2018-02-15T04:46:23.737Z,14.22
2018-02-15T04:48:50.378Z,14.24
2018-02-15T04:51:16.963Z,14.22
2018-02-15T04:53:43.578Z,14.32
2018-02-15T04:56:10.174Z,14.24
2018-02-15T04:58:36.768Z,14.30
2018-02-15T05:01:03.351Z,14.40
2018-02-15T05:03:29.985Z,14.51
2018-02-15T05:05:56.557Z,14.35
2018-02-15T05:08:23.163Z,14.41
2018-02-15T05:10:49.739Z,14.36
2018-02-15T05:13:16.316Z,14.37
2018-02-15T05:15:43.010Z,14.46
2018-02-15T05:18:09.610Z,14.49
2018-02-15T05:20:36.205Z,14.79
2018-02-15T05:23:02.807Z,14.97
2018-02-15T05:25:29.413Z,14.69
2018-02-15T05:27:55.982Z,14.67
2018-02-15T05:30:22.550Z,14.71
2018-02-15T05:32:49.128Z,14.74
2018-02-15T05:35:15.749Z,14.68
2018-02-15T05:37:42.355Z,14.73
2018-02-15T05:40:08.923Z,14.78
2018-02-15T05:42:35.493Z,14.83
2018-02-15T05:45:02.075Z,14.83
2018-02-15T05:47:28.630Z,14.98
2018-02-15T05:49:55.294Z,15.03
2018-02-15T05:52:21.900Z,15.08
2018-02-15T05:54:48.479Z,15.11
2018-02-15T05:57:15.110Z,15.09
2018-02-15T05:59:41.719Z,15.08
2018-02-15T06:02:08.323Z,15.08
2018-02-15T06:04:34.884Z,15.03
2018-02-15T06:07:01.488Z,14.99
2018-02-15T06:09:28.057Z,15.07
2018-02-15T06:11:54.620Z,15.01
2018-02-15T06:14:21.237Z,15.03
2018-02-15T06:16:47.884Z,15.01
2018-02-15T06:19:14.442Z,15.02
2018-02-15T06:21:41.098Z,15.01
2018-02-15T06:24:07.702Z,15.05
2018-02-15T06:26:34.268Z,15.06
2018-02-15T06:29:03.337Z,15.06
2018-02-15T06:31:29.961Z,15.64
2018-02-15T06:33:56.626Z,15.19
2018-02-15T06:36:23.215Z,15.15
2018-02-15T06:38:49.862Z,15.16
2018-02-15T06:41:16.657Z,15.43
2018-02-15T06:43:43.408Z,15.34
2018-02-15T06:46:10.014Z,15.40
2018-02-15T06:48:36.580Z,15.69
2018-02-15T06:51:03.300Z,15.60
2018-02-15T06:53:29.879Z,15.52
2018-02-15T06:55:56.441Z,15.55
2018-02-15T06:58:23.255Z,15.55
2018-02-15T07:00:50.161Z,15.63
2018-02-15T07:03:16.791Z,15.60
2018-02-15T07:05:43.392Z,15.67
2018-02-15T07:08:10.007Z,15.96
2018-02-15T07:10:36.645Z,15.95
2018-02-15T07:13:03.246Z,30.11
2018-02-15T07:15:29.883Z,16.21
2018-02-15T07:17:57.008Z,16.16
2018-02-15T07:20:23.371Z,16.18
2018-02-15T07:22:49.972Z,16.22
2018-02-15T07:25:16.776Z,16.29
2018-02-15T07:27:43.480Z,16.20
2018-02-15T07:30:10.069Z,16.21
2018-02-15T07:32:36.714Z,16.12
2018-02-15T07:35:03.467Z,16.13
2018-02-15T07:37:30.069Z,15.98
2018-02-15T07:39:56.639Z,16.00
2018-02-15T07:42:23.341Z,15.87
2018-02-15T07:44:50.212Z,15.78
2018-02-15T07:47:16.815Z,15.85
2018-02-15T07:49:43.597Z,15.86
2018-02-15T07:52:10.203Z,16.03
2018-02-15T07:54:36.814Z,15.72
2018-02-15T07:57:03.558Z,15.80
2018-02-15T07:59:30.169Z,15.74
2018-02-15T08:01:56.854Z,15.78
2018-02-15T08:04:23.553Z,15.82
2018-02-15T08:06:50.164Z,15.86
2018-02-15T08:09:16.857Z,15.82
2018-02-15T08:11:43.841Z,15.81
2018-02-15T08:14:10.459Z,15.88
2018-02-15T08:16:37.141Z,16.03
2018-02-15T08:19:03.716Z,15.99
2018-02-15T08:21:30.321Z,16.05
2018-02-15T08:23:56.992Z,16.05
2018-02-15T08:26:23.591Z,16.00
2018-02-15T08:28:50.264Z,16.16
2018-02-15T08:31:16.952Z,16.20
2018-02-15T08:33:43.652Z,16.15
2018-02-15T08:36:10.336Z,16.48
2018-02-15T08:38:36.990Z,16.35
2018-02-15T08:41:03.615Z,16.33
2018-02-15T08:43:30.420Z,16.28
2018-02-15T08:45:57.090Z,16.47
2018-02-15T08:48:23.709Z,16.47
2018-02-15T08:50:50.292Z,16.53
2018-02-15T08:53:16.986Z,16.63
2018-02-15T08:55:43.664Z,16.96
2018-02-15T08:58:10.284Z,16.87
2018-02-15T09:00:36.958Z,16.78
2018-02-15T09:03:03.529Z,16.82
2018-02-15T09:05:30.205Z,16.83
2018-02-15T09:07:56.792Z,16.84
2018-02-15T09:10:23.420Z,16.82
2018-02-15T09:12:50.006Z,16.80
2018-02-15T09:15:16.630Z,17.80
2018-02-15T09:17:43.288Z,16.30
2018-02-15T09:20:17.574Z,17.42
2018-02-15T09:22:44.236Z,21.57
2018-02-15T09:25:10.950Z,16.80
2018-02-15T09:27:37.500Z,16.43
2018-02-15T09:30:04.153Z,16.56
2018-02-15T09:32:31.096Z,16.54
2018-02-15T09:34:57.728Z,16.57
2018-02-15T09:37:24.381Z,16.96
2018-02-15T09:44:36.110Z,17.07
2018-02-15T09:47:02.736Z,15.76
2018-02-15T09:51:17.138Z,15.57
2018-02-15T09:53:43.702Z,16.09
2018-02-15T09:56:10.374Z,16.15
2018-02-15T09:58:36.940Z,16.32
2018-02-15T10:01:03.796Z,16.31
2018-02-15T10:03:30.395Z,16.17
2018-02-15T10:05:57.264Z,16.17
2018-02-15T10:08:23.850Z,16.04
2018-02-15T10:10:50.674Z,15.64
2018-02-15T10:13:17.243Z,17.23
2018-02-15T10:15:43.844Z,16.05
2018-02-15T10:18:10.486Z,16.28
2018-02-15T10:20:37.162Z,16.22
2018-02-15T10:23:03.763Z,16.26
2018-02-15T10:25:30.383Z,16.28
2018-02-15T10:27:56.997Z,16.44
2018-02-15T10:30:23.898Z,16.07
2018-02-15T10:32:54.467Z,16.23
2018-02-15T10:35:21.096Z,16.14
2018-02-15T10:37:47.768Z,16.24
2018-02-15T10:40:14.358Z,16.36
2018-02-15T10:42:40.994Z,16.09
2018-02-15T10:45:07.651Z,16.34
2018-02-15T10:47:34.631Z,16.13
2018-02-15T10:50:01.246Z,16.15
2018-02-15T11:37:12.812Z,16.09
2018-02-15T11:39:39.490Z,16.57
2018-02-15T11:42:06.166Z,16.70
2018-02-15T11:44:32.909Z,17.91
2018-02-15T11:46:59.502Z,16.76
2018-02-15T11:49:26.192Z,16.55
2018-02-15T11:51:52.814Z,16.71
2018-02-15T11:54:19.413Z,16.60
2018-02-15T11:56:46.065Z,16.68
2018-02-15T11:59:12.704Z,16.74
2018-02-15T12:01:39.340Z,16.62
2018-02-15T12:04:05.983Z,16.65
2018-02-15T12:06:32.656Z,16.55
2018-02-15T12:08:59.307Z,16.56
2018-02-15T12:11:26.071Z,16.50
2018-02-15T12:13:55.093Z,16.49
2018-02-15T12:16:21.967Z,16.92
2018-02-15T12:18:48.878Z,16.71
2018-02-15T12:21:15.745Z,16.69
2018-02-15T12:23:42.571Z,16.76
2018-02-15T12:26:09.193Z,16.84
2018-02-15T12:28:35.916Z,16.78
2018-02-15T12:31:02.610Z,17.14
2018-02-15T12:33:29.242Z,17.15
2018-02-15T12:35:55.989Z,16.86
2018-02-15T12:38:22.660Z,17.02
2018-02-15T12:40:49.273Z,16.85
2018-02-15T12:43:15.922Z,16.95
2018-02-15T12:45:42.579Z,16.84
2018-02-15T12:48:09.216Z,17.41
2018-02-15T12:50:35.808Z,17.74
2018-02-15T12:53:02.575Z,16.98
2018-02-15T12:55:29.219Z,17.18
2018-02-15T12:57:58.065Z,16.92
2018-02-15T13:00:24.665Z,16.99
2018-02-15T13:02:51.307Z,16.99
2018-02-15T13:05:17.891Z,16.89
2018-02-15T13:07:44.609Z,16.78
2018-02-15T13:10:13.395Z,16.99
2018-02-15T13:12:40.041Z,16.99
2018-02-15T13:15:06.711Z,17.04
2018-02-15T13:17:50.287Z,16.66
2018-02-15T13:20:17.254Z,16.80
2018-02-15T13:22:43.949Z,16.77
2018-02-15T13:25:11.340Z,16.85
2018-02-15T13:27:38.032Z,16.88
2018-02-15T13:30:04.760Z,16.91
2018-02-15T13:32:31.605Z,16.85
2018-02-15T13:34:58.425Z,16.75
2018-02-15T13:37:25.362Z,16.81
2018-02-15T13:39:52.573Z,16.73
2018-02-15T13:42:19.247Z,16.59
2018-02-15T13:44:46.308Z,16.75
2018-02-15T13:47:13.587Z,16.74
2018-02-15T13:49:40.523Z,16.66
2018-02-15T13:52:07.410Z,16.79
2018-02-15T13:54:34.208Z,16.95
2018-02-15T13:57:02.479Z,17.42
2018-02-15T13:59:29.691Z,16.92
2018-02-15T14:01:56.782Z,16.99
2018-02-15T14:04:26.617Z,17.01
2018-02-15T14:06:53.205Z,16.75
2018-02-15T14:09:20.678Z,16.93
2018-02-15T14:11:47.822Z,16.90
2018-02-15T14:14:14.670Z,17.06
2018-02-15T14:16:41.550Z,16.66
2018-02-15T14:19:08.752Z,17.06
2018-02-15T14:21:35.468Z,17.01
2018-02-15T14:24:08.622Z,17.05
2018-02-15T14:26:35.371Z,17.05
2018-02-15T14:29:02.275Z,17.25
2018-02-15T14:31:31.309Z,17.20
2018-02-15T14:33:58.142Z,16.87
2018-02-15T14:36:24.804Z,16.96
2018-02-15T14:38:51.915Z,17.22
2018-02-15T14:41:19.251Z,17.13
2018-02-15T14:43:51.723Z,16.80
2018-02-15T14:46:18.650Z,17.07
2018-02-15T14:48:45.350Z,17.05
2018-02-15T14:51:11.932Z,16.69
2018-02-15T14:53:41.505Z,17.04
2018-02-15T14:56:08.077Z,17.11
2018-02-15T14:58:34.968Z,17.09
2018-02-15T15:01:01.563Z,17.22
2018-02-15T15:03:28.414Z,17.15
2018-02-15T15:07:21.392Z,18.07
2018-02-15T15:09:48.535Z,18.18
2018-02-15T15:15:46.193Z,17.93
2018-02-15T15:18:12.866Z,18.01
2018-02-15T15:20:39.499Z,19.20
2018-02-15T15:23:06.064Z,17.88
2018-02-15T15:25:32.680Z,18.84
2018-02-15T15:31:33.286Z,17.47
2018-02-15T15:33:59.948Z,16.95
2018-02-15T15:38:25.404Z,17.53
2018-02-15T15:40:52.520Z,17.20
2018-02-15T15:44:09.079Z,17.06
2018-02-15T15:46:35.696Z,17.34
2018-02-15T15:49:05.269Z,17.25
2018-02-15T15:51:32.146Z,17.10
2018-02-15T15:53:58.780Z,17.15
2018-02-15T15:56:25.398Z,17.19
2018-02-15T15:58:52.414Z,16.95
2018-02-15T16:01:19.084Z,17.14
2018-02-15T16:03:45.759Z,16.92
2018-02-15T16:06:12.374Z,16.93
2018-02-15T16:08:38.961Z,16.76
2018-02-15T16:11:05.547Z,16.84
2018-02-15T16:13:32.152Z,16.84
2018-02-15T16:15:58.803Z,16.95
2018-02-15T16:18:25.502Z,16.76
2018-02-15T16:20:52.065Z,16.62
2018-02-15T16:23:18.707Z,16.63
2018-02-15T16:25:45.358Z,16.65
2018-02-15T16:28:11.946Z,16.69
2018-02-15T16:30:38.553Z,16.66
2018-02-15T16:33:05.185Z,16.66
2018-02-15T16:35:31.865Z,16.67
2018-02-15T16:37:58.441Z,16.65
2018-02-15T16:40:25.042Z,16.59
2018-02-15T16:42:51.721Z,16.47
2018-02-15T16:45:20.303Z,16.51
2018-02-15T16:47:46.936Z,16.16
2018-02-15T16:50:13.549Z,16.31
2018-02-15T16:52:40.158Z,16.31
2018-02-15T16:55:06.761Z,16.35
2018-02-15T16:57:33.638Z,16.36
2018-02-15T17:00:00.255Z,16.37
2018-02-15T17:02:26.853Z,16.30
2018-02-15T17:04:53.424Z,16.24
2018-02-15T17:07:20.066Z,16.22
2018-02-15T17:09:46.639Z,16.18
2018-02-15T17:12:13.198Z,16.10
2018-02-15T17:14:39.759Z,16.15
2018-02-15T17:17:06.406Z,16.13
2018-02-15T17:21:02.235Z,16.02
2018-02-15T17:23:28.793Z,16.19
2018-02-15T17:25:55.461Z,16.36
2018-02-15T17:28:22.027Z,15.88
2018-02-15T17:30:48.656Z,16.18
2018-02-15T17:33:15.296Z,16.01
2018-02-15T17:35:41.897Z,15.98
2018-02-15T17:38:08.536Z,16.04
2018-02-15T17:40:35.125Z,16.05
2018-02-15T17:43:01.872Z,16.19
2018-02-15T17:45:28.411Z,15.89
2018-02-15T17:47:55.044Z,15.87
2018-02-15T17:50:21.639Z,15.85
2018-02-15T17:56:53.353Z,15.66
2018-02-15T17:59:19.960Z,15.53
2018-02-15T18:03:57.191Z,15.56
2018-02-15T18:06:23.753Z,15.63
2018-02-15T18:08:50.361Z,15.76
2018-02-15T18:13:57.217Z,15.49
2018-02-15T18:17:09.926Z,15.24
2018-02-15T18:19:36.538Z,15.32
2018-02-15T18:22:03.175Z,15.31
2018-02-15T18:24:29.768Z,15.27
2018-02-15T18:26:56.350Z,15.25
2018-02-15T18:29:22.925Z,15.25
2018-02-15T18:31:49.564Z,15.25
2018-02-15T18:34:16.133Z,15.18
2018-02-15T18:36:42.758Z,15.21
2018-02-15T18:39:09.328Z,15.16
2018-02-15T18:41:35.995Z,15.15
2018-02-15T18:44:02.777Z,15.13
2018-02-15T18:46:29.359Z,15.12
2018-02-15T18:48:55.961Z,15.10
2018-02-15T18:51:22.593Z,15.10
2018-02-15T18:53:49.176Z,15.07
2018-02-15T18:56:15.785Z,15.07
2018-02-15T18:58:42.368Z,15.06
2018-02-15T19:01:08.920Z,15.04
2018-02-15T19:03:35.486Z,15.05
2018-02-15T19:06:02.051Z,15.02
2018-02-15T19:08:28.670Z,15.00
2018-02-15T19:10:55.261Z,14.97
2018-02-15T19:13:21.831Z,15.01
2018-02-15T19:15:48.476Z,14.97
2018-02-15T19:18:15.091Z,14.98
2018-02-15T19:20:41.715Z,15.00
2018-02-15T19:23:08.346Z,15.00
2018-02-15T19:25:34.992Z,15.00
2018-02-15T19:28:01.606Z,14.97
2018-02-15T19:30:28.191Z,14.98
2018-02-15T19:32:54.766Z,14.94
2018-02-15T19:35:21.372Z,14.95
2018-02-15T19:37:47.957Z,14.93
2018-02-15T19:40:14.593Z,14.95
2018-02-15T19:42:41.154Z,14.94
2018-02-15T19:45:07.732Z,14.93
2018-02-15T19:47:34.363Z,14.95
2018-02-15T19:50:00.936Z,14.93
2018-02-15T19:52:27.512Z,14.92
2018-02-15T19:54:54.120Z,14.90
2018-02-15T19:57:20.709Z,14.89
2018-02-15T19:59:47.272Z,14.90
2018-02-15T20:02:13.860Z,14.84
2018-02-15T20:04:40.424Z,14.90
2018-02-15T20:07:07.082Z,14.92
2018-02-15T20:09:33.652Z,14.93
2018-02-15T20:12:00.239Z,14.93
2018-02-15T20:14:26.849Z,14.89
2018-02-15T20:16:53.416Z,14.91
2018-02-15T20:19:20.033Z,14.87
2018-02-15T20:21:46.644Z,14.85
2018-02-15T20:24:13.252Z,14.84
2018-02-15T20:26:39.855Z,14.83
2018-02-15T20:29:06.548Z,14.81
2018-02-15T20:31:33.137Z,14.80
2018-02-15T20:33:59.741Z,14.77
2018-02-15T20:36:26.305Z,14.81
2018-02-15T20:38:52.886Z,14.78
2018-02-15T20:41:19.569Z,14.76
2018-02-15T20:43:46.226Z,14.76
2018-02-15T20:46:12.841Z,14.76
2018-02-15T20:48:39.424Z,14.76
2018-02-15T20:51:06.049Z,14.74
2018-02-15T20:53:32.634Z,14.70
2018-02-15T20:55:59.234Z,14.69
2018-02-15T20:58:25.819Z,14.71
2018-02-15T21:00:52.408Z,14.70
2018-02-15T21:03:19.036Z,14.68
2018-02-15T21:05:45.640Z,14.67
2018-02-15T21:08:12.215Z,14.69
2018-02-15T21:10:38.841Z,14.69
2018-02-15T21:13:05.459Z,14.69
2018-02-15T21:15:32.013Z,14.67
2018-02-15T21:17:58.593Z,14.68
2018-02-15T21:20:25.169Z,14.68
2018-02-15T21:22:51.799Z,14.65
2018-02-15T21:25:18.383Z,14.64
2018-02-15T21:27:44.989Z,14.63
2018-02-15T21:30:11.574Z,14.64
2018-02-15T21:32:38.164Z,14.63
2018-02-15T21:35:04.742Z,14.60
2018-02-15T21:37:31.325Z,14.60
2018-02-15T21:39:57.952Z,14.61
2018-02-15T21:42:24.523Z,14.60
2018-02-15T21:44:51.183Z,14.63
2018-02-15T21:47:17.792Z,14.64
2018-02-15T21:49:44.388Z,14.59
2018-02-15T21:52:10.952Z,14.65
2018-02-15T21:54:37.522Z,14.67
2018-02-15T21:57:04.123Z,14.67
2018-02-15T21:59:30.767Z,14.63
2018-02-15T22:01:57.329Z,14.63
2018-02-15T22:04:23.901Z,14.58
2018-02-15T22:06:50.473Z,14.61
2018-02-15T22:09:17.063Z,14.60
2018-02-15T22:11:43.657Z,14.57
2018-02-15T22:14:10.249Z,14.57
2018-02-15T22:16:36.881Z,14.58
2018-02-15T22:19:03.451Z,14.59
2018-02-15T22:21:30.074Z,14.56
2018-02-15T22:23:56.653Z,14.55
2018-02-15T22:26:23.221Z,14.54
2018-02-15T22:28:49.786Z,14.51
2018-02-15T22:31:16.402Z,14.53
2018-02-15T22:33:42.968Z,14.56
2018-02-15T22:36:09.548Z,14.51
2018-02-15T22:38:36.117Z,14.55
2018-02-15T22:41:02.711Z,14.54
2018-02-15T22:43:29.277Z,14.59
2018-02-15T22:45:55.835Z,14.59
2018-02-15T22:48:22.442Z,14.58
2018-02-15T22:50:49.030Z,14.57
2018-02-15T22:53:15.642Z,14.53
2018-02-15T22:55:42.206Z,14.56
2018-02-15T22:58:08.924Z,14.54
2018-02-15T23:00:35.493Z,14.52
2018-02-15T23:03:02.124Z,14.51
2018-02-15T23:05:28.707Z,14.50
2018-02-15T23:07:55.330Z,14.51
2018-02-15T23:10:21.955Z,14.49
2018-02-15T23:12:48.575Z,14.49
2018-02-15T23:15:15.241Z,14.49
2018-02-15T23:17:41.809Z,14.48
2018-02-15T23:20:08.419Z,14.52
2018-02-15T23:22:35.027Z,14.60
2018-02-15T23:25:01.631Z,14.50
2018-02-15T23:27:28.483Z,14.70
2018-02-15T23:29:55.051Z,14.79
2018-02-15T23:32:21.656Z,14.88
2018-02-15T23:34:48.303Z,14.77
2018-02-15T23:37:14.949Z,14.74
2018-02-15T23:39:41.513Z,14.66
2018-02-15T23:42:08.121Z,14.60
2018-02-15T23:44:34.700Z,14.61
2018-02-15T23:47:01.347Z,14.58
2018-02-15T23:49:27.925Z,14.56
2018-02-15T23:51:54.497Z,14.57
2018-02-15T23:54:21.086Z,14.53
2018-02-15T23:56:47.709Z,14.59
2018-02-15T23:59:14.335Z,14.55
